sensor_id;sensor_type;location;lat;lon;timestamp;pressure;altitude;pressure_sealevel;temperature;humidity
57791;BME280;43621;51.798;21.588;2023-03-18T00:02:22;100540.20;;;3.13;44.28
57791;BME280;43621;51.798;21.588;2023-03-18T00:06:24;100532.66;;;3.13;44.15
57791;BME280;43621;51.798;21.588;2023-03-18T00:10:26;100526.21;;;3.11;44.15
57791;BME280;43621;51.798;21.588;2023-03-18T00:14:28;100521.68;;;3.08;44.29
57791;BME280;43621;51.798;21.588;2023-03-18T00:18:31;100519.02;;;3.06;44.52
57791;BME280;43621;51.798;21.588;2023-03-18T00:22:35;100516.75;;;3.07;44.38
57791;BME280;43621;51.798;21.588;2023-03-18T00:26:37;100512.78;;;3.07;44.39
57791;BME280;43621;51.798;21.588;2023-03-18T00:30:40;100514.55;;;3.06;44.42
57791;BME280;43621;51.798;21.588;2023-03-18T00:34:43;100513.77;;;3.04;44.33
57791;BME280;43621;51.798;21.588;2023-03-18T00:38:46;100514.84;;;3.04;44.29
57791;BME280;43621;51.798;21.588;2023-03-18T00:42:52;100514.79;;;3.02;44.46
57791;BME280;43621;51.798;21.588;2023-03-18T00:46:58;100509.27;;;3.02;44.49
57791;BME280;43621;51.798;21.588;2023-03-18T00:51:00;100500.68;;;3.01;44.58
57791;BME280;43621;51.798;21.588;2023-03-18T00:55:02;100496.65;;;2.99;44.48
57791;BME280;43621;51.798;21.588;2023-03-18T00:59:05;100498.36;;;2.96;44.38
57791;BME280;43621;51.798;21.588;2023-03-18T01:03:07;100493.46;;;2.94;44.34
57791;BME280;43621;51.798;21.588;2023-03-18T01:07:09;100489.94;;;2.92;44.44
57791;BME280;43621;51.798;21.588;2023-03-18T01:11:13;100490.35;;;2.91;44.56
57791;BME280;43621;51.798;21.588;2023-03-18T01:15:17;100488.31;;;2.90;44.56
57791;BME280;43621;51.798;21.588;2023-03-18T01:19:19;100485.43;;;2.89;44.27
57791;BME280;43621;51.798;21.588;2023-03-18T01:23:22;100478.92;;;2.88;44.36
57791;BME280;43621;51.798;21.588;2023-03-18T01:27:24;100478.30;;;2.86;44.36
57791;BME280;43621;51.798;21.588;2023-03-18T01:31:26;100474.98;;;2.84;44.41
57791;BME280;43621;51.798;21.588;2023-03-18T01:35:30;100469.29;;;2.81;44.57
57791;BME280;43621;51.798;21.588;2023-03-18T01:39:33;100469.60;;;2.78;44.57
57791;BME280;43621;51.798;21.588;2023-03-18T01:43:37;100464.55;;;2.76;44.59
57791;BME280;43621;51.798;21.588;2023-03-18T01:47:39;100463.52;;;2.72;44.77
57791;BME280;43621;51.798;21.588;2023-03-18T01:51:53;100466.24;;;2.70;44.68
57791;BME280;43621;51.798;21.588;2023-03-18T01:55:58;100464.55;;;2.66;44.79
57791;BME280;43621;51.798;21.588;2023-03-18T02:00:04;100465.52;;;2.64;44.92
57791;BME280;43621;51.798;21.588;2023-03-18T02:04:08;100464.98;;;2.60;44.89
57791;BME280;43621;51.798;21.588;2023-03-18T02:08:11;100463.77;;;2.57;45.01
57791;BME280;43621;51.798;21.588;2023-03-18T02:12:22;100465.13;;;2.54;44.89
57791;BME280;43621;51.798;21.588;2023-03-18T02:16:29;100463.08;;;2.50;45.07
57791;BME280;43621;51.798;21.588;2023-03-18T02:28:57;100451.13;;;2.38;45.38
57791;BME280;43621;51.798;21.588;2023-03-18T02:33:02;100447.62;;;2.33;45.61
57791;BME280;43621;51.798;21.588;2023-03-18T02:37:04;100448.73;;;2.27;45.56
57791;BME280;43621;51.798;21.588;2023-03-18T02:41:29;100450.27;;;2.20;45.93
57791;BME280;43621;51.798;21.588;2023-03-18T02:49:52;100456.66;;;2.03;46.19
57791;BME280;43621;51.798;21.588;2023-03-18T02:53:57;100461.23;;;1.97;46.32
57791;BME280;43621;51.798;21.588;2023-03-18T02:58:01;100457.14;;;1.89;46.61
57791;BME280;43621;51.798;21.588;2023-03-18T03:02:03;100459.40;;;1.82;46.78
57791;BME280;43621;51.798;21.588;2023-03-18T03:06:06;100454.06;;;1.74;47.18
57791;BME280;43621;51.798;21.588;2023-03-18T03:10:09;100454.76;;;1.67;47.46
57791;BME280;43621;51.798;21.588;2023-03-18T03:14:13;100452.22;;;1.59;47.63
57791;BME280;43621;51.798;21.588;2023-03-18T03:18:15;100448.62;;;1.51;47.94
57791;BME280;43621;51.798;21.588;2023-03-18T03:22:17;100439.67;;;1.44;48.28
57791;BME280;43621;51.798;21.588;2023-03-18T03:26:20;100435.48;;;1.38;48.68
57791;BME280;43621;51.798;21.588;2023-03-18T03:30:23;100434.34;;;1.33;48.36
57791;BME280;43621;51.798;21.588;2023-03-18T03:34:25;100429.00;;;1.29;48.55
57791;BME280;43621;51.798;21.588;2023-03-18T03:38:27;100424.88;;;1.25;48.75
57791;BME280;43621;51.798;21.588;2023-03-18T03:42:29;100418.65;;;1.22;49.02
57791;BME280;43621;51.798;21.588;2023-03-18T03:46:31;100413.98;;;1.19;49.68
57791;BME280;43621;51.798;21.588;2023-03-18T03:50:34;100415.30;;;1.16;50.16
57791;BME280;43621;51.798;21.588;2023-03-18T03:54:36;100411.98;;;1.14;50.28
57791;BME280;43621;51.798;21.588;2023-03-18T03:58:38;100414.23;;;1.14;50.33
57791;BME280;43621;51.798;21.588;2023-03-18T04:02:42;100419.45;;;1.12;50.50
57791;BME280;43621;51.798;21.588;2023-03-18T04:06:45;100419.64;;;1.12;50.58
57791;BME280;43621;51.798;21.588;2023-03-18T04:10:47;100417.31;;;1.14;50.68
57791;BME280;43621;51.798;21.588;2023-03-18T04:14:49;100420.51;;;1.15;50.36
57791;BME280;43621;51.798;21.588;2023-03-18T04:18:51;100425.17;;;1.15;50.78
57791;BME280;43621;51.798;21.588;2023-03-18T04:22:53;100419.64;;;1.15;50.78
57791;BME280;43621;51.798;21.588;2023-03-18T04:26:55;100414.29;;;1.16;50.61
57791;BME280;43621;51.798;21.588;2023-03-18T04:30:58;100414.55;;;1.18;50.57
57791;BME280;43621;51.798;21.588;2023-03-18T04:35:00;100411.34;;;1.20;50.53
57791;BME280;43621;51.798;21.588;2023-03-18T04:39:02;100407.81;;;1.22;50.40
57791;BME280;43621;51.798;21.588;2023-03-18T04:43:04;100408.38;;;1.25;50.43
57791;BME280;43621;51.798;21.588;2023-03-18T04:47:05;100413.33;;;1.30;50.32
57791;BME280;43621;51.798;21.588;2023-03-18T04:51:09;100412.76;;;1.35;50.06
57791;BME280;43621;51.798;21.588;2023-03-18T04:55:12;100413.91;;;1.43;49.88
57791;BME280;43621;51.798;21.588;2023-03-18T04:59:18;100405.74;;;1.52;49.81
57791;BME280;43621;51.798;21.588;2023-03-18T05:03:20;100403.91;;;1.62;49.64
57791;BME280;43621;51.798;21.588;2023-03-18T05:07:22;100400.80;;;1.73;49.31
57791;BME280;43621;51.798;21.588;2023-03-18T05:11:24;100407.63;;;1.95;48.93
57791;BME280;43621;51.798;21.588;2023-03-18T05:15:27;100410.80;;;2.21;48.53
57791;BME280;43621;51.798;21.588;2023-03-18T05:19:29;100409.31;;;2.47;48.09
57791;BME280;43621;51.798;21.588;2023-03-18T05:23:31;100403.77;;;2.84;47.57
57791;BME280;43621;51.798;21.588;2023-03-18T05:27:33;100403.72;;;3.52;46.81
57791;BME280;43621;51.798;21.588;2023-03-18T05:31:35;100404.38;;;4.59;45.71
57791;BME280;43621;51.798;21.588;2023-03-18T05:35:37;100408.76;;;5.78;42.97
57791;BME280;43621;51.798;21.588;2023-03-18T05:39:40;100404.07;;;7.26;41.08
57791;BME280;43621;51.798;21.588;2023-03-18T05:43:42;100402.08;;;8.84;39.74
57791;BME280;43621;51.798;21.588;2023-03-18T05:47:45;100398.11;;;9.78;36.57
57791;BME280;43621;51.798;21.588;2023-03-18T05:51:46;100396.22;;;10.54;35.47
57791;BME280;43621;51.798;21.588;2023-03-18T05:55:48;100393.13;;;11.83;34.06
57791;BME280;43621;51.798;21.588;2023-03-18T05:59:50;100386.25;;;12.67;31.62
57791;BME280;43621;51.798;21.588;2023-03-18T06:03:52;100386.23;;;12.68;29.99
57791;BME280;43621;51.798;21.588;2023-03-18T06:07:55;100390.41;;;12.70;29.64
57791;BME280;43621;51.798;21.588;2023-03-18T06:11:57;100383.54;;;13.84;28.81
57791;BME280;43621;51.798;21.588;2023-03-18T06:15:59;100387.12;;;15.14;26.84
57791;BME280;43621;51.798;21.588;2023-03-18T06:20:03;100384.23;;;16.01;25.97
57791;BME280;43621;51.798;21.588;2023-03-18T06:24:07;100385.19;;;16.92;24.46
57791;BME280;43621;51.798;21.588;2023-03-18T06:28:08;100381.08;;;17.93;23.68
57791;BME280;43621;51.798;21.588;2023-03-18T06:32:10;100378.62;;;19.42;21.98
57791;BME280;43621;51.798;21.588;2023-03-18T06:36:13;100378.30;;;20.79;20.84
57791;BME280;43621;51.798;21.588;2023-03-18T06:40:17;100380.88;;;22.48;19.65
57791;BME280;43621;51.798;21.588;2023-03-18T06:44:20;100378.73;;;23.96;18.18
57791;BME280;43621;51.798;21.588;2023-03-18T06:48:22;100374.98;;;25.02;16.82
57791;BME280;43621;51.798;21.588;2023-03-18T06:52:24;100379.27;;;26.02;15.12
57791;BME280;43621;51.798;21.588;2023-03-18T06:56:26;100376.36;;;26.68;14.69
57791;BME280;43621;51.798;21.588;2023-03-18T07:00:27;100385.81;;;27.86;14.23
57791;BME280;43621;51.798;21.588;2023-03-18T07:04:30;100397.34;;;28.61;13.28
57791;BME280;43621;51.798;21.588;2023-03-18T07:08:34;100395.71;;;28.76;12.13
57791;BME280;43621;51.798;21.588;2023-03-18T07:12:36;100387.47;;;29.17;12.78
57791;BME280;43621;51.798;21.588;2023-03-18T07:16:38;100383.23;;;30.70;12.35
57791;BME280;43621;51.798;21.588;2023-03-18T07:20:40;100387.66;;;31.98;11.45
57791;BME280;43621;51.798;21.588;2023-03-18T07:24:43;100387.61;;;32.75;10.46
57791;BME280;43621;51.798;21.588;2023-03-18T07:28:46;100390.52;;;33.46;10.05
57791;BME280;43621;51.798;21.588;2023-03-18T07:32:48;100386.77;;;33.90;9.27
57791;BME280;43621;51.798;21.588;2023-03-18T07:36:50;100392.73;;;33.87;8.83
57791;BME280;43621;51.798;21.588;2023-03-18T07:40:52;100385.79;;;33.93;8.57
57791;BME280;43621;51.798;21.588;2023-03-18T07:44:54;100385.27;;;35.11;8.55
57791;BME280;43621;51.798;21.588;2023-03-18T07:48:56;100395.56;;;35.77;7.91
57791;BME280;43621;51.798;21.588;2023-03-18T07:52:57;100390.27;;;35.98;7.56
57791;BME280;43621;51.798;21.588;2023-03-18T07:57:00;100389.70;;;34.67;7.79
57791;BME280;43621;51.798;21.588;2023-03-18T08:01:02;100388.89;;;33.40;8.68
57791;BME280;43621;51.798;21.588;2023-03-18T08:05:06;100389.33;;;32.71;8.53
57791;BME280;43621;51.798;21.588;2023-03-18T08:09:08;100395.91;;;32.42;8.77
57791;BME280;43621;51.798;21.588;2023-03-18T08:13:10;100396.58;;;31.57;8.75
57791;BME280;43621;51.798;21.588;2023-03-18T08:17:13;100390.63;;;31.76;9.01
57791;BME280;43621;51.798;21.588;2023-03-18T08:21:15;100385.63;;;33.16;8.38
57791;BME280;43621;51.798;21.588;2023-03-18T08:25:18;100385.45;;;34.05;8.25
57791;BME280;43621;51.798;21.588;2023-03-18T08:29:20;100391.01;;;35.32;8.34
57791;BME280;43621;51.798;21.588;2023-03-18T08:33:26;100387.93;;;36.47;7.52
57791;BME280;43621;51.798;21.588;2023-03-18T08:37:28;100386.62;;;37.23;7.07
57791;BME280;43621;51.798;21.588;2023-03-18T08:41:30;100386.03;;;37.80;6.88
57791;BME280;43621;51.798;21.588;2023-03-18T08:45:34;100386.16;;;38.81;6.67
57791;BME280;43621;51.798;21.588;2023-03-18T08:49:37;100387.17;;;39.77;6.24
57791;BME280;43621;51.798;21.588;2023-03-18T08:53:39;100381.45;;;40.35;5.97
57791;BME280;43621;51.798;21.588;2023-03-18T08:57:41;100383.34;;;40.59;5.78
57791;BME280;43621;51.798;21.588;2023-03-18T09:01:43;100384.75;;;40.99;5.60
57791;BME280;43621;51.798;21.588;2023-03-18T09:05:47;100382.96;;;40.54;5.70
57791;BME280;43621;51.798;21.588;2023-03-18T09:09:49;100378.41;;;41.28;5.53
57791;BME280;43621;51.798;21.588;2023-03-18T09:13:51;100370.32;;;40.72;5.29
57791;BME280;43621;51.798;21.588;2023-03-18T09:17:53;100370.85;;;40.32;5.64
57791;BME280;43621;51.798;21.588;2023-03-18T09:21:55;100367.25;;;40.48;5.67
57791;BME280;43621;51.798;21.588;2023-03-18T09:25:57;100359.26;;;41.06;5.59
57791;BME280;43621;51.798;21.588;2023-03-18T09:30:00;100357.02;;;40.85;5.28
57791;BME280;43621;51.798;21.588;2023-03-18T09:34:03;100354.00;;;39.74;5.65
57791;BME280;43621;51.798;21.588;2023-03-18T09:38:06;100350.52;;;38.85;5.91
57791;BME280;43621;51.798;21.588;2023-03-18T09:55:27;100342.50;;;35.07;7.13
57791;BME280;43621;51.798;21.588;2023-03-18T09:59:36;100335.63;;;35.15;7.47
57791;BME280;43621;51.798;21.588;2023-03-18T10:03:47;100340.28;;;35.55;7.48
57791;BME280;43621;51.798;21.588;2023-03-18T10:07:52;100334.92;;;35.30;7.31
57791;BME280;43621;51.798;21.588;2023-03-18T10:16:49;100322.95;;;34.26;7.69
57791;BME280;43621;51.798;21.588;2023-03-18T10:21:37;100319.64;;;34.20;7.99
57791;BME280;43621;51.798;21.588;2023-03-18T10:26:07;100328.69;;;34.49;7.82
57791;BME280;43621;51.798;21.588;2023-03-18T10:38:54;100320.51;;;31.95;8.59
57791;BME280;43621;51.798;21.588;2023-03-18T10:42:57;100313.82;;;31.94;9.00
57791;BME280;43621;51.798;21.588;2023-03-18T10:47:29;100312.52;;;31.62;9.13
57791;BME280;43621;51.798;21.588;2023-03-18T10:51:52;100314.16;;;30.41;9.69
57791;BME280;43621;51.798;21.588;2023-03-18T10:56:06;100318.02;;;29.14;9.95
57791;BME280;43621;51.798;21.588;2023-03-18T11:00:30;100307.77;;;28.55;10.40
57791;BME280;43621;51.798;21.588;2023-03-18T11:04:42;100300.11;;;28.15;10.74
57791;BME280;43621;51.798;21.588;2023-03-18T11:08:48;100301.97;;;27.19;11.05
57791;BME280;43621;51.798;21.588;2023-03-18T11:12:53;100298.17;;;26.67;11.52
57791;BME280;43621;51.798;21.588;2023-03-18T11:17:03;100289.38;;;25.20;12.26
57791;BME280;43621;51.798;21.588;2023-03-18T11:21:05;100284.44;;;23.34;13.30
57791;BME280;43621;51.798;21.588;2023-03-18T11:25:17;100280.34;;;22.26;14.09
57791;BME280;43621;51.798;21.588;2023-03-18T11:29:26;100270.93;;;21.09;15.01
57791;BME280;43621;51.798;21.588;2023-03-18T11:33:31;100277.39;;;20.08;15.73
57791;BME280;43621;51.798;21.588;2023-03-18T11:37:40;100271.59;;;19.09;16.30
57791;BME280;43621;51.798;21.588;2023-03-18T11:41:42;100273.35;;;18.27;17.21
57791;BME280;43621;51.798;21.588;2023-03-18T11:45:55;100260.58;;;17.34;17.95
57791;BME280;43621;51.798;21.588;2023-03-18T11:50:00;100255.92;;;16.67;18.76
57791;BME280;43621;51.798;21.588;2023-03-18T11:54:31;100250.98;;;16.36;19.28
57791;BME280;43621;51.798;21.588;2023-03-18T12:15:59;100235.48;;;14.96;21.68
57791;BME280;43621;51.798;21.588;2023-03-18T12:29:16;100227.77;;;15.24;21.68
57791;BME280;43621;51.798;21.588;2023-03-18T12:37:46;100229.76;;;15.01;21.92
57791;BME280;43621;51.798;21.588;2023-03-18T12:46:14;100233.54;;;14.80;22.36
57791;BME280;43621;51.798;21.588;2023-03-18T12:50:23;100237.67;;;14.61;22.55
57791;BME280;43621;51.798;21.588;2023-03-18T12:54:29;100217.59;;;14.46;22.84
57791;BME280;43621;51.798;21.588;2023-03-18T12:58:43;100218.34;;;14.44;22.79
57791;BME280;43621;51.798;21.588;2023-03-18T13:07:02;100208.38;;;14.33;23.22
57791;BME280;43621;51.798;21.588;2023-03-18T13:15:42;100211.04;;;14.27;23.72
57791;BME280;43621;51.798;21.588;2023-03-18T13:19:46;100217.59;;;14.20;23.86
57791;BME280;43621;51.798;21.588;2023-03-18T13:24:15;100213.31;;;14.06;23.91
57791;BME280;43621;51.798;21.588;2023-03-18T13:28:43;100206.95;;;13.98;24.05
57791;BME280;43621;51.798;21.588;2023-03-18T13:37:24;100199.42;;;14.01;24.14
57791;BME280;43621;51.798;21.588;2023-03-18T13:41:35;100190.55;;;14.17;24.30
57791;BME280;43621;51.798;21.588;2023-03-18T13:45:45;100187.95;;;14.25;24.20
57791;BME280;43621;51.798;21.588;2023-03-18T13:49:48;100183.09;;;14.45;24.24
57791;BME280;43621;51.798;21.588;2023-03-18T13:54:02;100176.77;;;14.65;24.06
57791;BME280;43621;51.798;21.588;2023-03-18T14:10:37;100160.19;;;14.58;24.04
57791;BME280;43621;51.798;21.588;2023-03-18T14:19:02;100153.52;;;14.42;24.21
57791;BME280;43621;51.798;21.588;2023-03-18T14:27:45;100150.63;;;14.55;24.45
57791;BME280;43621;51.798;21.588;2023-03-18T14:31:59;100148.36;;;14.58;24.48
57791;BME280;43621;51.798;21.588;2023-03-18T14:36:07;100147.00;;;14.53;24.21
57791;BME280;43621;51.798;21.588;2023-03-18T14:40:15;100145.05;;;14.43;23.97
57791;BME280;43621;51.798;21.588;2023-03-18T14:44:23;100141.40;;;14.35;24.30
57791;BME280;43621;51.798;21.588;2023-03-18T14:48:29;100136.98;;;14.24;24.27
57791;BME280;43621;51.798;21.588;2023-03-18T14:52:36;100138.02;;;14.09;24.00
57791;BME280;43621;51.798;21.588;2023-03-18T14:56:41;100135.77;;;13.90;24.03
57791;BME280;43621;51.798;21.588;2023-03-18T15:00:44;100138.97;;;13.74;24.25
57791;BME280;43621;51.798;21.588;2023-03-18T15:04:55;100136.77;;;13.55;24.37
57791;BME280;43621;51.798;21.588;2023-03-18T15:09:12;100134.98;;;13.29;24.97
57791;BME280;43621;51.798;21.588;2023-03-18T15:13:17;100132.29;;;13.03;25.38
57791;BME280;43621;51.798;21.588;2023-03-18T15:17:24;100135.45;;;12.85;25.88
57791;BME280;43621;51.798;21.588;2023-03-18T15:21:30;100134.80;;;12.60;26.39
57791;BME280;43621;51.798;21.588;2023-03-18T15:25:35;100130.45;;;12.36;26.62
57791;BME280;43621;51.798;21.588;2023-03-18T15:29:47;100127.61;;;12.16;26.97
57791;BME280;43621;51.798;21.588;2023-03-18T15:34:11;100129.80;;;11.99;27.36
57791;BME280;43621;51.798;21.588;2023-03-18T15:38:17;100132.66;;;11.84;27.73
57791;BME280;43621;51.798;21.588;2023-03-18T15:42:22;100128.81;;;11.72;27.84
57791;BME280;43621;51.798;21.588;2023-03-18T15:46:26;100130.77;;;11.64;28.11
57791;BME280;43621;51.798;21.588;2023-03-18T15:50:31;100131.06;;;11.57;28.27
57791;BME280;43621;51.798;21.588;2023-03-18T15:54:38;100131.34;;;11.51;28.52
57791;BME280;43621;51.798;21.588;2023-03-18T15:58:41;100133.27;;;11.41;28.87
57791;BME280;43621;51.798;21.588;2023-03-18T16:02:45;100134.17;;;11.30;29.01
57791;BME280;43621;51.798;21.588;2023-03-18T16:06:47;100146.17;;;11.19;29.12
57791;BME280;43621;51.798;21.588;2023-03-18T16:10:55;100151.36;;;11.08;29.24
57791;BME280;43621;51.798;21.588;2023-03-18T16:15:00;100151.34;;;10.95;29.49
57791;BME280;43621;51.798;21.588;2023-03-18T16:19:22;100155.92;;;10.81;29.63
57791;BME280;43621;51.798;21.588;2023-03-18T16:23:28;100157.70;;;10.67;30.00
57791;BME280;43621;51.798;21.588;2023-03-18T16:27:39;100155.86;;;10.54;30.04
57791;BME280;43621;51.798;21.588;2023-03-18T16:31:42;100153.77;;;10.42;30.34
57791;BME280;43621;51.798;21.588;2023-03-18T16:35:47;100155.65;;;10.31;30.38
57791;BME280;43621;51.798;21.588;2023-03-18T16:39:52;100157.70;;;10.19;30.51
57791;BME280;43621;51.798;21.588;2023-03-18T16:43:57;100156.17;;;10.06;30.67
57791;BME280;43621;51.798;21.588;2023-03-18T16:48:05;100158.27;;;9.94;30.83
57791;BME280;43621;51.798;21.588;2023-03-18T16:52:10;100157.50;;;9.83;31.41
57791;BME280;43621;51.798;21.588;2023-03-18T16:56:17;100157.59;;;9.72;32.10
57791;BME280;43621;51.798;21.588;2023-03-18T17:00:23;100153.53;;;9.60;32.24
57791;BME280;43621;51.798;21.588;2023-03-18T17:04:33;100153.83;;;9.50;32.34
57791;BME280;43621;51.798;21.588;2023-03-18T17:08:35;100157.28;;;9.43;32.66
57791;BME280;43621;51.798;21.588;2023-03-18T17:12:37;100154.73;;;9.36;32.83
57791;BME280;43621;51.798;21.588;2023-03-18T17:16:40;100154.42;;;9.28;32.91
57791;BME280;43621;51.798;21.588;2023-03-18T17:20:43;100152.33;;;9.24;32.86
57791;BME280;43621;51.798;21.588;2023-03-18T17:24:46;100151.68;;;9.22;33.21
57791;BME280;43621;51.798;21.588;2023-03-18T17:28:48;100149.40;;;9.18;33.51
57791;BME280;43621;51.798;21.588;2023-03-18T17:32:51;100153.69;;;9.14;33.65
57791;BME280;43621;51.798;21.588;2023-03-18T17:36:52;100152.07;;;9.11;33.50
57791;BME280;43621;51.798;21.588;2023-03-18T17:40:54;100150.58;;;9.08;33.38
57791;BME280;43621;51.798;21.588;2023-03-18T17:49:19;100161.83;;;9.00;33.71
57791;BME280;43621;51.798;21.588;2023-03-18T17:57:26;100171.52;;;8.92;33.90
57791;BME280;43621;51.798;21.588;2023-03-18T18:01:28;100169.52;;;8.87;33.93
57791;BME280;43621;51.798;21.588;2023-03-18T18:05:30;100169.81;;;8.81;33.88
57791;BME280;43621;51.798;21.588;2023-03-18T18:09:32;100170.55;;;8.79;33.98
57791;BME280;43621;51.798;21.588;2023-03-18T18:13:34;100173.24;;;8.76;34.44
57791;BME280;43621;51.798;21.588;2023-03-18T18:17:36;100172.43;;;8.73;34.61
57791;BME280;43621;51.798;21.588;2023-03-18T18:21:37;100170.55;;;8.70;34.54
57791;BME280;43621;51.798;21.588;2023-03-18T18:25:39;100175.72;;;8.66;34.71
57791;BME280;43621;51.798;21.588;2023-03-18T18:29:41;100173.10;;;8.62;34.56
57791;BME280;43621;51.798;21.588;2023-03-18T18:33:47;100170.45;;;8.58;34.64
57791;BME280;43621;51.798;21.588;2023-03-18T18:37:50;100168.67;;;8.54;34.68
57791;BME280;43621;51.798;21.588;2023-03-18T18:41:52;100168.08;;;8.51;34.90
57791;BME280;43621;51.798;21.588;2023-03-18T18:45:55;100165.80;;;8.47;34.96
57791;BME280;43621;51.798;21.588;2023-03-18T18:49:58;100163.09;;;8.42;35.16
57791;BME280;43621;51.798;21.588;2023-03-18T18:53:59;100161.64;;;8.36;35.27
57791;BME280;43621;51.798;21.588;2023-03-18T18:58:02;100162.91;;;8.28;35.28
57791;BME280;43621;51.798;21.588;2023-03-18T19:02:31;100162.28;;;8.23;35.53
57791;BME280;43621;51.798;21.588;2023-03-18T19:06:34;100163.98;;;8.17;35.78
57791;BME280;43621;51.798;21.588;2023-03-18T19:10:37;100162.67;;;8.11;35.73
57791;BME280;43621;51.798;21.588;2023-03-18T19:14:38;100168.89;;;8.08;35.79
57791;BME280;43621;51.798;21.588;2023-03-18T19:18:40;100167.98;;;8.03;35.70
57791;BME280;43621;51.798;21.588;2023-03-18T19:22:43;100168.25;;;8.00;35.70
57791;BME280;43621;51.798;21.588;2023-03-18T19:26:45;100168.26;;;7.95;35.88
57791;BME280;43621;51.798;21.588;2023-03-18T19:30:47;100173.40;;;7.90;36.14
57791;BME280;43621;51.798;21.588;2023-03-18T19:34:50;100170.89;;;7.84;36.30
57791;BME280;43621;51.798;21.588;2023-03-18T19:38:54;100170.36;;;7.77;36.37
57791;BME280;43621;51.798;21.588;2023-03-18T19:42:56;100171.40;;;7.72;36.47
57791;BME280;43621;51.798;21.588;2023-03-18T19:46:58;100170.18;;;7.70;36.48
57791;BME280;43621;51.798;21.588;2023-03-18T19:51:01;100169.55;;;7.67;36.67
57791;BME280;43621;51.798;21.588;2023-03-18T19:55:04;100168.28;;;7.66;36.76
57791;BME280;43621;51.798;21.588;2023-03-18T19:59:17;100164.96;;;7.64;36.78
57791;BME280;43621;51.798;21.588;2023-03-18T20:03:20;100161.21;;;7.60;36.91
57791;BME280;43621;51.798;21.588;2023-03-18T20:07:25;100163.11;;;7.56;36.86
57791;BME280;43621;51.798;21.588;2023-03-18T20:11:27;100162.39;;;7.52;36.99
57791;BME280;43621;51.798;21.588;2023-03-18T20:15:29;100160.83;;;7.48;37.14
57791;BME280;43621;51.798;21.588;2023-03-18T20:19:31;100158.91;;;7.43;37.29
57791;BME280;43621;51.798;21.588;2023-03-18T20:23:33;100159.88;;;7.39;37.35
57791;BME280;43621;51.798;21.588;2023-03-18T20:27:35;100160.83;;;7.36;37.68
57791;BME280;43621;51.798;21.588;2023-03-18T20:31:37;100158.20;;;7.31;37.56
57791;BME280;43621;51.798;21.588;2023-03-18T20:35:41;100155.98;;;7.26;37.72
57791;BME280;43621;51.798;21.588;2023-03-18T20:39:44;100157.89;;;7.19;38.08
57791;BME280;43621;51.798;21.588;2023-03-18T20:43:46;100155.71;;;7.11;38.15
57791;BME280;43621;51.798;21.588;2023-03-18T20:47:51;100157.23;;;7.03;38.29
57791;BME280;43621;51.798;21.588;2023-03-18T20:51:53;100156.91;;;6.98;38.22
57791;BME280;43621;51.798;21.588;2023-03-18T20:55:54;100155.17;;;6.93;38.14
57791;BME280;43621;51.798;21.588;2023-03-18T20:59:56;100152.53;;;6.87;39.09
57791;BME280;43621;51.798;21.588;2023-03-18T21:03:58;100149.04;;;6.75;39.20
57791;BME280;43621;51.798;21.588;2023-03-18T21:08:02;100150.88;;;6.64;39.00
57791;BME280;43621;51.798;21.588;2023-03-18T21:12:04;100150.89;;;6.59;39.40
57791;BME280;43621;51.798;21.588;2023-03-18T21:16:12;100148.23;;;6.59;39.56
57791;BME280;43621;51.798;21.588;2023-03-18T21:20:19;100146.23;;;6.61;39.83
57791;BME280;43621;51.798;21.588;2023-03-18T21:24:26;100146.08;;;6.61;39.96
57791;BME280;43621;51.798;21.588;2023-03-18T21:28:28;100146.92;;;6.59;39.92
57791;BME280;43621;51.798;21.588;2023-03-18T21:32:31;100145.28;;;6.57;39.68
57791;BME280;43621;51.798;21.588;2023-03-18T21:36:33;100146.75;;;6.59;39.68
57791;BME280;43621;51.798;21.588;2023-03-18T21:40:34;100148.34;;;6.58;39.63
57791;BME280;43621;51.798;21.588;2023-03-18T21:44:36;100144.08;;;6.57;39.77
57791;BME280;43621;51.798;21.588;2023-03-18T21:48:38;100141.21;;;6.54;40.07
57791;BME280;43621;51.798;21.588;2023-03-18T21:52:40;100139.85;;;6.51;40.29
57791;BME280;43621;51.798;21.588;2023-03-18T21:56:42;100138.16;;;6.50;40.13
57791;BME280;43621;51.798;21.588;2023-03-18T22:00:49;100141.31;;;6.50;40.11
57791;BME280;43621;51.798;21.588;2023-03-18T22:04:53;100138.85;;;6.53;40.20
57791;BME280;43621;51.798;21.588;2023-03-18T22:08:55;100137.02;;;6.54;40.18
57791;BME280;43621;51.798;21.588;2023-03-18T22:12:57;100138.26;;;6.54;40.22
57791;BME280;43621;51.798;21.588;2023-03-18T22:16:59;100137.54;;;6.52;40.49
57791;BME280;43621;51.798;21.588;2023-03-18T22:21:01;100135.30;;;6.49;40.65
57791;BME280;43621;51.798;21.588;2023-03-18T22:25:03;100134.16;;;6.46;40.62
57791;BME280;43621;51.798;21.588;2023-03-18T22:29:05;100134.91;;;6.42;40.81
57791;BME280;43621;51.798;21.588;2023-03-18T22:33:16;100135.06;;;6.40;40.56
57791;BME280;43621;51.798;21.588;2023-03-18T22:37:20;100133.81;;;6.38;40.99
57791;BME280;43621;51.798;21.588;2023-03-18T22:41:24;100140.30;;;6.35;41.17
57791;BME280;43621;51.798;21.588;2023-03-18T22:45:31;100141.11;;;6.28;41.45
57791;BME280;43621;51.798;21.588;2023-03-18T22:49:33;100139.79;;;6.20;41.65
57791;BME280;43621;51.798;21.588;2023-03-18T22:53:37;100145.14;;;6.13;41.48
57791;BME280;43621;51.798;21.588;2023-03-18T22:57:40;100143.67;;;6.07;41.90
57791;BME280;43621;51.798;21.588;2023-03-18T23:01:42;100143.52;;;6.01;41.78
57791;BME280;43621;51.798;21.588;2023-03-18T23:05:48;100146.09;;;5.99;41.80
57791;BME280;43621;51.798;21.588;2023-03-18T23:09:52;100149.16;;;5.98;42.16
57791;BME280;43621;51.798;21.588;2023-03-18T23:13:54;100148.66;;;5.95;42.08